createdAt,value
2019-03-09T00:01:54.038Z,2.90
2019-03-09T00:04:22.865Z,2.80
2019-03-09T00:06:52.806Z,2.80
2019-03-09T00:09:21.645Z,2.60
2019-03-09T00:11:52.611Z,1.87
2019-03-09T00:14:27.544Z,2.30
2019-03-09T00:16:56.459Z,2.55
2019-03-09T00:19:25.378Z,2.70
2019-03-09T00:21:56.331Z,3.00
2019-03-09T00:24:38.685Z,3.05
2019-03-09T00:27:30.162Z,2.83
2019-03-09T00:30:23.233Z,2.25
2019-03-09T00:32:52.118Z,2.90
2019-03-09T00:35:20.938Z,3.20
2019-03-09T00:37:49.889Z,2.87
2019-03-09T00:40:21.580Z,2.75
2019-03-09T00:42:50.567Z,2.42
2019-03-09T00:45:19.549Z,2.47
2019-03-09T00:47:48.553Z,2.80
2019-03-09T00:50:17.530Z,2.70
2019-03-09T00:52:46.648Z,2.52
2019-03-09T00:55:15.697Z,3.10
2019-03-09T00:57:44.687Z,2.50
2019-03-09T01:00:16.696Z,2.60
2019-03-09T01:02:45.679Z,2.30
2019-03-09T01:05:15.631Z,2.10
2019-03-09T01:07:44.556Z,2.50
2019-03-09T01:10:15.017Z,2.60
2019-03-09T01:12:43.984Z,2.50
2019-03-09T01:15:14.058Z,2.75
2019-03-09T01:17:42.959Z,3.08
2019-03-09T01:20:13.867Z,2.02
2019-03-09T01:22:42.854Z,2.60
2019-03-09T01:25:11.868Z,2.80
2019-03-09T01:27:40.842Z,2.17
2019-03-09T01:30:13.040Z,2.15
2019-03-09T01:32:42.024Z,2.22
2019-03-09T01:35:11.025Z,2.90
2019-03-09T01:37:40.218Z,2.30
2019-03-09T01:40:11.226Z,2.70
2019-03-09T01:42:59.266Z,2.55
2019-03-09T01:45:28.257Z,2.20
2019-03-09T01:47:58.259Z,2.77
2019-03-09T01:50:27.247Z,2.22
2019-03-09T01:52:56.163Z,2.60
2019-03-09T01:55:25.034Z,2.33
2019-03-09T01:57:54.005Z,2.20
2019-03-09T02:00:22.981Z,2.83
2019-03-09T02:02:52.002Z,3.55
2019-03-09T02:05:20.969Z,2.75
2019-03-09T02:07:49.995Z,2.90
2019-03-09T02:10:18.975Z,2.62
2019-03-09T02:12:47.897Z,2.00
2019-03-09T02:15:17.745Z,2.42
2019-03-09T02:17:48.869Z,2.25
2019-03-09T02:20:17.910Z,2.58
2019-03-09T02:22:46.901Z,1.90
2019-03-09T02:25:16.113Z,3.00
2019-03-09T02:27:45.464Z,2.20
2019-03-09T02:30:14.676Z,2.50
2019-03-09T02:32:43.682Z,2.17
2019-03-09T02:35:12.660Z,2.05
2019-03-09T02:37:41.633Z,2.02
2019-03-09T02:40:13.309Z,2.15
2019-03-09T02:42:42.237Z,1.85
2019-03-09T02:45:13.294Z,1.90
2019-03-09T02:47:42.312Z,2.22
2019-03-09T02:50:12.337Z,2.30
2019-03-09T02:52:41.321Z,1.90
2019-03-09T02:55:10.974Z,1.98
2019-03-09T02:57:40.042Z,2.00
2019-03-09T03:00:18.289Z,2.08
2019-03-09T03:02:53.291Z,2.00
2019-03-09T03:05:22.294Z,2.22
2019-03-09T03:07:51.456Z,2.10
2019-03-09T03:10:20.548Z,2.50
2019-03-09T03:12:49.896Z,2.12
2019-03-09T03:15:35.390Z,1.80
2019-03-09T03:18:04.954Z,1.87
2019-03-09T03:20:34.469Z,1.85
2019-03-09T03:23:05.799Z,1.70
2019-03-09T03:25:35.015Z,2.00
2019-03-09T03:28:06.205Z,2.12
2019-03-09T03:30:41.108Z,1.70
2019-03-09T03:33:10.026Z,2.55
2019-03-09T03:35:39.016Z,1.90
2019-03-09T03:38:08.724Z,1.40
2019-03-09T03:40:37.888Z,1.80
2019-03-09T03:43:07.115Z,2.35
2019-03-09T03:45:36.111Z,2.00
2019-03-09T03:48:05.270Z,1.52
2019-03-09T03:50:36.241Z,1.87
2019-03-09T03:53:05.246Z,2.08
2019-03-09T03:55:34.361Z,1.92
2019-03-09T03:58:03.369Z,1.70
2019-03-09T04:00:32.359Z,1.90
2019-03-09T04:03:03.538Z,1.70
2019-03-09T04:05:32.739Z,2.35
2019-03-09T04:08:01.891Z,2.10
2019-03-09T04:10:30.990Z,1.60
2019-03-09T04:13:00.173Z,1.80
2019-03-09T04:15:29.043Z,1.70
2019-03-09T04:17:57.872Z,1.80
2019-03-09T04:20:26.898Z,1.70
2019-03-09T04:22:55.712Z,1.80
2019-03-09T04:25:24.766Z,2.50
2019-03-09T04:27:53.668Z,1.70
2019-03-09T04:30:22.606Z,1.50
2019-03-09T04:32:51.613Z,1.30
2019-03-09T04:35:20.658Z,1.70
2019-03-09T04:37:49.586Z,1.87
2019-03-09T04:40:18.578Z,1.67
2019-03-09T04:42:47.441Z,1.50
2019-03-09T04:45:16.405Z,1.45
2019-03-09T04:47:45.348Z,1.45
2019-03-09T04:50:13.677Z,1.67
2019-03-09T04:52:42.629Z,1.30
2019-03-09T04:55:11.928Z,1.72
2019-03-09T04:57:40.929Z,1.62
2019-03-09T05:00:09.950Z,1.42
2019-03-09T05:02:38.979Z,1.60
2019-03-09T05:05:08.829Z,1.57
2019-03-09T05:07:50.195Z,1.60
2019-03-09T05:10:25.950Z,1.70
2019-03-09T05:12:58.195Z,1.25
2019-03-09T05:15:27.182Z,1.40
2019-03-09T05:17:56.108Z,1.70
2019-03-09T05:20:25.063Z,1.37
2019-03-09T05:22:54.039Z,1.45
2019-03-09T05:25:22.900Z,1.40
2019-03-09T05:27:51.853Z,1.25
2019-03-09T05:30:40.757Z,1.55
2019-03-09T05:33:09.909Z,1.90
2019-03-09T05:35:38.894Z,1.60
2019-03-09T05:38:07.893Z,1.50
2019-03-09T05:40:36.862Z,1.22
2019-03-09T05:43:05.907Z,1.45
2019-03-09T05:45:35.017Z,1.50
2019-03-09T05:48:04.014Z,1.47
2019-03-09T05:50:33.009Z,1.80
2019-03-09T05:53:08.075Z,1.37
2019-03-09T05:55:37.094Z,1.77
2019-03-09T05:58:06.080Z,1.70
2019-03-09T06:00:36.052Z,1.60
2019-03-09T06:03:05.075Z,1.35
2019-03-09T06:05:35.954Z,1.47
2019-03-09T06:08:05.272Z,1.52
2019-03-09T06:10:34.397Z,1.80
2019-03-09T06:13:03.398Z,1.40
2019-03-09T06:15:32.531Z,2.00
2019-03-09T06:18:01.550Z,1.77
2019-03-09T06:20:30.625Z,1.77
2019-03-09T06:22:59.628Z,1.62
2019-03-09T06:25:28.598Z,1.55
2019-03-09T06:27:57.594Z,1.37
2019-03-09T06:30:26.578Z,1.30
2019-03-09T06:33:30.601Z,1.57
2019-03-09T06:36:12.089Z,1.25
2019-03-09T06:38:44.800Z,1.20
2019-03-09T06:41:16.105Z,1.00
2019-03-09T06:43:45.372Z,1.00
2019-03-09T06:46:14.308Z,1.30
2019-03-09T06:48:43.608Z,1.50
2019-03-09T06:51:12.533Z,1.40
2019-03-09T06:53:41.575Z,1.27
2019-03-09T06:56:11.646Z,1.40
2019-03-09T06:58:40.619Z,0.98
2019-03-09T07:01:20.211Z,1.30
2019-03-09T07:03:49.235Z,1.00
2019-03-09T07:06:18.321Z,1.07
2019-03-09T07:08:47.326Z,1.10
2019-03-09T07:11:16.193Z,1.27
2019-03-09T07:13:52.362Z,0.90
2019-03-09T07:16:16.008Z,1.02
2019-03-09T07:18:45.027Z,0.90
2019-03-09T07:21:14.029Z,1.20
2019-03-09T07:23:45.432Z,1.00
2019-03-09T07:26:16.588Z,1.00
2019-03-09T07:28:46.567Z,1.00
2019-03-09T07:31:15.605Z,0.90
2019-03-09T07:33:44.525Z,1.00
2019-03-09T07:36:16.589Z,1.10
2019-03-09T07:38:46.740Z,1.27
2019-03-09T07:41:15.856Z,1.22
2019-03-09T07:43:53.793Z,0.95
2019-03-09T07:46:22.679Z,1.25
2019-03-09T07:49:01.810Z,1.10
2019-03-09T07:51:38.061Z,0.90
2019-03-09T07:54:09.227Z,0.80
2019-03-09T07:56:39.295Z,1.20
2019-03-09T07:59:09.346Z,1.05
2019-03-09T08:01:45.302Z,1.07
2019-03-09T08:04:14.289Z,1.20
2019-03-09T08:06:43.245Z,1.07
2019-03-09T08:09:12.306Z,1.10
2019-03-09T08:11:41.365Z,1.07
2019-03-09T08:14:19.477Z,1.20
2019-03-09T08:16:54.528Z,1.00
2019-03-09T08:19:23.613Z,0.95
2019-03-09T08:21:58.512Z,1.00
2019-03-09T08:24:29.498Z,0.90
2019-03-09T08:26:58.474Z,1.10
2019-03-09T08:29:27.547Z,1.72
2019-03-09T08:32:11.958Z,1.00
2019-03-09T08:34:43.659Z,0.90
2019-03-09T08:37:14.116Z,1.10
2019-03-09T08:39:45.921Z,0.95
2019-03-09T08:42:16.073Z,0.80
2019-03-09T08:44:52.445Z,1.00
2019-03-09T08:47:21.424Z,0.95
2019-03-09T08:49:52.899Z,0.90
2019-03-09T08:52:30.380Z,0.80
2019-03-09T08:54:59.639Z,0.90
2019-03-09T08:57:28.806Z,0.78
2019-03-09T09:00:00.017Z,1.60
2019-03-09T09:02:31.248Z,1.00
2019-03-09T09:05:15.416Z,1.00
2019-03-09T09:07:51.761Z,1.30
2019-03-09T09:10:24.315Z,0.98
2019-03-09T09:12:53.477Z,1.00
2019-03-09T09:15:23.793Z,1.12
2019-03-09T09:18:03.220Z,0.90
2019-03-09T09:20:38.429Z,1.10
2019-03-09T09:23:13.701Z,0.95
2019-03-09T09:25:43.948Z,1.00
2019-03-09T09:28:15.261Z,0.93
2019-03-09T09:30:48.529Z,0.90
2019-03-09T09:33:17.593Z,1.10
2019-03-09T09:35:46.683Z,1.05
2019-03-09T09:38:17.818Z,1.35
2019-03-09T09:40:53.012Z,1.00
2019-03-09T09:43:31.147Z,1.00
2019-03-09T09:46:02.450Z,1.17
2019-03-09T09:48:31.351Z,1.00
2019-03-09T09:51:00.431Z,1.00
2019-03-09T09:53:32.435Z,1.02
2019-03-09T09:56:07.255Z,1.40
2019-03-09T09:58:36.155Z,1.32
2019-03-09T10:01:06.143Z,1.55
2019-03-09T10:03:35.091Z,1.35
2019-03-09T10:06:06.012Z,1.10
2019-03-09T10:08:36.530Z,1.00
2019-03-09T10:11:07.497Z,0.90
2019-03-09T10:13:36.459Z,0.98
2019-03-09T10:16:06.554Z,1.30
2019-03-09T10:18:36.516Z,1.40
2019-03-09T10:21:07.454Z,1.30
2019-03-09T10:23:36.471Z,1.20
2019-03-09T10:26:05.584Z,1.17
2019-03-09T10:28:37.681Z,0.95
2019-03-09T10:31:06.673Z,1.35
2019-03-09T10:33:41.438Z,1.10
2019-03-09T10:36:14.426Z,1.30
2019-03-09T10:38:51.457Z,1.30
2019-03-09T10:41:20.469Z,1.20
2019-03-09T10:43:59.923Z,2.12
2019-03-09T10:46:30.140Z,1.40
2019-03-09T10:49:00.727Z,1.13
2019-03-09T10:51:32.865Z,1.17
2019-03-09T10:54:02.006Z,1.30
2019-03-09T10:56:40.016Z,1.22
2019-03-09T10:59:42.193Z,1.53
2019-03-09T11:03:05.073Z,1.40
2019-03-09T11:05:52.656Z,1.40
2019-03-09T11:08:41.546Z,1.20
2019-03-09T11:11:49.752Z,1.60
2019-03-09T11:14:19.706Z,1.20
2019-03-09T11:17:01.754Z,1.00
2019-03-09T11:19:30.762Z,1.07
2019-03-09T11:22:05.974Z,1.20
2019-03-09T11:24:43.334Z,1.02
2019-03-09T11:27:12.453Z,1.40
2019-03-09T11:29:41.486Z,1.55
2019-03-09T11:32:12.511Z,1.20
2019-03-09T11:34:52.833Z,1.40
2019-03-09T11:37:21.932Z,1.30
2019-03-09T11:39:52.503Z,1.20
2019-03-09T11:42:27.389Z,1.37
2019-03-09T11:44:56.441Z,1.20
2019-03-09T11:47:25.434Z,1.10
2019-03-09T11:49:54.295Z,0.90
2019-03-09T11:52:24.330Z,0.83
2019-03-09T11:54:59.166Z,1.20
2019-03-09T11:57:37.427Z,1.50
2019-03-09T12:00:12.097Z,1.77
2019-03-09T12:02:43.238Z,1.62
2019-03-09T12:05:24.456Z,1.47
2019-03-09T12:07:59.376Z,1.42
2019-03-09T12:10:34.369Z,1.10
2019-03-09T12:13:18.535Z,1.40
2019-03-09T12:15:59.100Z,1.10
2019-03-09T12:18:28.487Z,1.17
2019-03-09T12:20:58.623Z,1.40
2019-03-09T12:23:28.698Z,1.07
2019-03-09T12:26:06.826Z,1.10
2019-03-09T12:28:35.821Z,1.20
2019-03-09T12:31:11.367Z,1.30
2019-03-09T12:33:42.757Z,1.27
2019-03-09T12:36:14.016Z,1.10
2019-03-09T12:38:43.125Z,1.20
2019-03-09T12:41:18.185Z,1.32
2019-03-09T12:43:47.251Z,1.00
2019-03-09T12:46:16.352Z,1.00
2019-03-09T12:49:01.772Z,1.00
2019-03-09T12:51:31.775Z,1.27
2019-03-09T12:54:04.037Z,1.37
2019-03-09T12:59:40.242Z,1.10
2019-03-09T13:02:13.971Z,1.12
2019-03-09T13:04:51.321Z,1.02
2019-03-09T13:07:22.437Z,1.02
2019-03-09T13:09:57.578Z,1.10
2019-03-09T13:12:28.642Z,1.15
2019-03-09T13:14:58.686Z,1.50
2019-03-09T13:17:53.072Z,1.30
2019-03-09T13:20:29.211Z,1.10
2019-03-09T13:22:58.193Z,1.27
2019-03-09T13:25:33.147Z,1.20
2019-03-09T13:28:16.603Z,0.90
2019-03-09T13:30:56.725Z,1.10
2019-03-09T13:33:26.736Z,1.27
2019-03-09T13:36:02.663Z,1.20
2019-03-09T13:38:33.727Z,1.10
2019-03-09T13:41:07.146Z,1.37
2019-03-09T13:43:37.232Z,1.20
2019-03-09T13:46:07.275Z,1.20
2019-03-09T13:48:39.977Z,1.10
2019-03-09T13:51:11.634Z,1.53
2019-03-09T13:53:47.847Z,1.00
2019-03-09T13:56:17.491Z,1.17
2019-03-09T13:58:47.582Z,1.27
2019-03-09T14:01:26.233Z,1.10
2019-03-09T14:03:53.423Z,1.15
2019-03-09T14:06:27.188Z,1.10
2019-03-09T14:09:01.010Z,1.10
2019-03-09T14:11:32.448Z,1.25
2019-03-09T14:14:05.266Z,1.30
2019-03-09T14:16:41.115Z,1.10
2019-03-09T14:19:14.051Z,0.80
2019-03-09T14:21:43.807Z,0.93
2019-03-09T14:24:13.593Z,1.15
2019-03-09T14:26:44.933Z,1.10
2019-03-09T14:29:14.416Z,0.98
2019-03-09T14:31:49.115Z,0.85
2019-03-09T14:34:22.815Z,1.10
2019-03-09T14:36:56.150Z,1.27
2019-03-09T14:39:31.922Z,1.17
2019-03-09T14:42:01.877Z,1.00
2019-03-09T14:44:34.874Z,0.90
2019-03-09T14:47:06.008Z,0.80
2019-03-09T14:49:43.379Z,1.07
2019-03-09T14:52:13.029Z,1.00
2019-03-09T14:54:48.698Z,1.10
2019-03-09T14:57:23.398Z,0.80
2019-03-09T14:59:53.880Z,0.95
2019-03-09T15:06:44.560Z,1.03
2019-03-09T15:09:13.853Z,0.85
2019-03-09T15:11:51.955Z,1.07
2019-03-09T15:14:21.291Z,1.00
2019-03-09T15:16:56.306Z,1.10
2019-03-09T15:19:26.612Z,0.70
2019-03-09T15:21:58.217Z,0.90
2019-03-09T15:24:43.810Z,0.90
2019-03-09T15:27:13.008Z,0.90
2019-03-09T15:29:42.519Z,0.90
2019-03-09T15:32:11.558Z,0.97
2019-03-09T15:34:40.666Z,0.90
2019-03-09T15:37:10.677Z,0.80
2019-03-09T15:39:39.694Z,0.88
2019-03-09T15:42:10.374Z,0.80
2019-03-09T15:44:39.393Z,0.90
2019-03-09T15:47:08.422Z,0.80
2019-03-09T15:49:37.392Z,1.20
2019-03-09T15:52:07.097Z,1.00
2019-03-09T15:54:37.434Z,0.90
2019-03-09T15:57:07.179Z,0.90
2019-03-09T15:59:36.887Z,1.10
2019-03-09T16:02:11.051Z,1.05
2019-03-09T16:04:41.034Z,1.10
2019-03-09T16:07:10.833Z,0.95
2019-03-09T16:09:46.755Z,1.15
2019-03-09T16:12:17.591Z,1.05
2019-03-09T16:14:47.323Z,0.95
2019-03-09T16:17:17.491Z,1.02
2019-03-09T16:19:47.637Z,0.80
2019-03-09T16:22:21.295Z,1.05
2019-03-09T16:24:51.345Z,1.10
2019-03-09T16:27:20.990Z,1.52
2019-03-09T16:29:52.743Z,0.90
2019-03-09T16:32:23.777Z,1.17
2019-03-09T16:35:03.993Z,1.10
2019-03-09T16:37:45.791Z,1.00
2019-03-09T16:40:17.656Z,1.00
2019-03-09T16:42:51.571Z,0.90
2019-03-09T16:45:21.221Z,1.00
2019-03-09T16:47:54.514Z,1.10
2019-03-09T17:09:36.383Z,1.00
2019-03-09T17:12:05.542Z,1.02
2019-03-09T17:14:36.758Z,1.15
2019-03-09T17:17:24.515Z,1.17
2019-03-09T17:19:54.615Z,1.00
2019-03-09T17:22:32.536Z,1.30
2019-03-09T17:25:03.229Z,1.10
2019-03-09T17:27:41.487Z,1.85
2019-03-09T17:30:15.743Z,1.27
2019-03-09T17:32:48.960Z,1.55
2019-03-09T17:35:19.659Z,1.40
2019-03-09T17:37:51.048Z,1.20
2019-03-09T17:40:25.017Z,1.30
2019-03-09T17:42:58.128Z,1.35
2019-03-09T17:45:27.494Z,1.20
2019-03-09T17:47:56.631Z,1.20
2019-03-09T17:50:25.702Z,1.45
2019-03-09T17:52:57.774Z,1.40
2019-03-09T17:55:28.945Z,1.30
2019-03-09T17:57:58.931Z,1.30
2019-03-09T18:00:42.080Z,1.40
2019-03-09T18:03:11.180Z,1.20
2019-03-09T18:05:40.208Z,1.35
2019-03-09T18:08:11.221Z,1.25
2019-03-09T18:10:56.317Z,1.65
2019-03-09T18:13:26.359Z,1.65
2019-03-09T18:15:55.478Z,1.27
2019-03-09T18:18:25.896Z,1.40
2019-03-09T18:21:05.077Z,1.20
2019-03-09T18:23:36.290Z,1.70
2019-03-09T18:26:05.309Z,1.75
2019-03-09T18:28:34.666Z,1.20
2019-03-09T18:31:14.697Z,1.57
2019-03-09T18:33:57.815Z,1.50
2019-03-09T18:36:32.854Z,1.75
2019-03-09T18:39:12.921Z,1.42
2019-03-09T18:41:42.188Z,1.40
2019-03-09T18:44:15.678Z,1.82
2019-03-09T18:47:11.266Z,1.70
2019-03-09T18:49:40.234Z,1.25
2019-03-09T18:52:09.264Z,1.42
2019-03-09T18:54:43.517Z,1.50
2019-03-09T18:57:12.545Z,1.80
2019-03-09T18:59:41.567Z,1.80
2019-03-09T19:02:10.624Z,1.45
2019-03-09T19:04:42.166Z,1.98
2019-03-09T19:07:11.134Z,1.60
2019-03-09T19:09:45.933Z,1.70
2019-03-09T19:12:14.874Z,1.70
2019-03-09T19:14:46.008Z,1.32
2019-03-09T19:17:15.014Z,1.40
2019-03-09T19:19:44.007Z,1.60
2019-03-09T19:22:12.888Z,1.40
2019-03-09T19:24:47.346Z,1.50
2019-03-09T19:27:18.367Z,1.80
2019-03-09T19:29:49.589Z,1.80
2019-03-09T19:32:18.616Z,1.67
2019-03-09T19:34:47.558Z,1.75
2019-03-09T19:37:18.618Z,1.67
2019-03-09T19:39:47.514Z,1.95
2019-03-09T19:42:17.469Z,1.67
2019-03-09T19:44:46.431Z,1.70
2019-03-09T19:47:15.376Z,2.10
2019-03-09T19:49:44.494Z,1.50
2019-03-09T19:52:15.757Z,2.05
2019-03-09T19:55:04.200Z,1.95
2019-03-09T20:04:05.021Z,2.60
2019-03-09T20:06:34.065Z,1.82
2019-03-09T20:09:21.221Z,1.95
2019-03-09T20:11:50.312Z,1.62
2019-03-09T20:14:20.406Z,2.10
2019-03-09T20:16:54.557Z,2.15
2019-03-09T20:19:29.012Z,1.82
2019-03-09T20:22:00.743Z,1.92
2019-03-09T20:24:30.190Z,1.90
2019-03-09T20:27:05.173Z,2.12
2019-03-09T20:30:21.854Z,2.30
2019-03-09T20:36:46.465Z,1.95
2019-03-09T21:14:44.623Z,1.85
2019-03-09T21:21:30.926Z,1.60
2019-03-09T22:04:43.646Z,1.95
2019-03-09T22:07:44.953Z,1.90
2019-03-09T22:10:23.283Z,2.02
2019-03-09T22:13:05.921Z,2.12
2019-03-09T22:16:14.928Z,1.50
2019-03-09T22:18:49.013Z,1.70
2019-03-09T22:21:36.425Z,2.10
2019-03-09T22:24:37.479Z,2.40
2019-03-09T22:27:48.896Z,1.77
2019-03-09T22:31:02.512Z,1.95
2019-03-09T22:33:31.693Z,1.90
2019-03-09T22:36:01.489Z,1.82
2019-03-09T22:38:30.502Z,2.00
2019-03-09T22:41:07.736Z,1.90
2019-03-09T22:43:47.414Z,1.65
2019-03-09T22:46:23.687Z,2.62
2019-03-09T22:49:00.658Z,2.02
2019-03-09T22:51:41.575Z,1.72
2019-03-09T22:54:29.752Z,1.85
2019-03-09T22:57:00.316Z,1.85
2019-03-09T22:59:38.381Z,1.87
2019-03-09T23:02:24.423Z,1.70
2019-03-09T23:04:56.096Z,2.17
2019-03-09T23:07:35.951Z,1.80
2019-03-09T23:10:06.873Z,1.90
2019-03-09T23:12:42.820Z,1.55
2019-03-09T23:15:22.044Z,1.90
2019-03-09T23:17:59.486Z,1.92
2019-03-09T23:20:30.099Z,2.40
2019-03-09T23:23:38.935Z,1.70
2019-03-09T23:26:35.873Z,2.20
2019-03-09T23:29:45.564Z,1.60
2019-03-09T23:32:20.611Z,1.80
2019-03-09T23:34:57.146Z,2.50
2019-03-09T23:37:33.960Z,1.50
2019-03-09T23:40:20.605Z,2.05
2019-03-09T23:42:51.948Z,1.60
2019-03-09T23:45:27.136Z,1.70
2019-03-09T23:48:03.501Z,1.70
2019-03-09T23:50:35.393Z,1.60
2019-03-09T23:53:13.654Z,1.98
2019-03-09T23:55:46.950Z,1.80
2019-03-09T23:58:16.078Z,2.20
